Alpena County Regional Airport
KAPN : rendu visible

Aérodrome :











RETROUVEZ-NOUS SUR...

 
LOGIN :

S'inscrire | Disclaimer

   EN    FR    IT 

 









Légende :    VFR   VFR Marginal   IFR   IFR Intensif   IFR Très Intensif
Visi : 
Plafond : 
>= 8 km
>= 3000ft
5 à 8 km
1000 à 3000 ft
1500m à 5 km
500 à 1000 ft
800 à 1500m
200 à 500 ft
< 800m
< 200 ft
Symboles :   Orages  Brouillard  Fortes neiges  Fortes précipitations  Vent > 20 kt






- Altitude de l'aérodrome : 690 ft
- Code IATA : APN


KAPN - Alpena County Regional

DERNIER METAR :
  • 211554Z 25012G21KT 10SM CLR M04/M10 A3030 RMK AO2 SLP276 T10391100 PNO $

METARs EXPIRÉS :
  • 211454Z 25012G20KT 10SM CLR M06/M11 A3032 RMK AO2 SLP281 T10561111 56005
  • 211438Z 25013G20KT 10SM CLR M07/M12 A3032 RMK AO2 T10671117
  • 211354Z 24009G19KT 10SM CLR M08/M13 A3032 RMK AO2 SLP283 T10831128
  • 211254Z 22008KT 10SM CLR M11/M14 A3032 RMK AO2 SLP284 T11061144

TAF KAPN
Valide du 21 à 12h jusqu'au 22 à 12h UTC


211125Z 2112/2212 24009KT P6SM SKC
FM211300 24010G18KT P6SM SKC
FM211800 23014G25KT P6SM SKC
FM220000 24014G24KT P6SM SKC WS020/25050KT
FM220300 25012KT P6SM FEW250 WS020/27045KT
FM220500 25010KT P6SM FEW180
FM220700 26008KT P6SM SCT029
FM220900 26008KT P6SM BKN029



MET'MAP, la Météo Aéronautique d'un coup d'oeil ! - Copyright ORBIFLY Décembre 2007 - Disclaimer

ORBIFLY MET'MAP TEAM :

Programmation & Développement : Alexandra Zaïnal
Sur une idée originale de : Baudouin d'Aumeries
Assistance à la programmation : Marc-Olivier Méhu
Soutien technique & logistique : Manuel Goepfert

Contact : metmap@orbifly.com




SOURCES & CREDITS :

   NOAA       Earth
Advisory